sensor_id;sensor_type;location;lat;lon;timestamp;temperature;humidity
27896;DHT22;15241;48.374;10.876;2023-04-24T00:00:17;12.20;99.90
27896;DHT22;15241;48.374;10.876;2023-04-24T00:05:16;12.20;99.90
27896;DHT22;15241;48.374;10.876;2023-04-24T00:10:15;12.20;99.90
27896;DHT22;15241;48.374;10.876;2023-04-24T00:15:14;12.10;99.90
27896;DHT22;15241;48.374;10.876;2023-04-24T00:20:13;12.00;99.90
27896;DHT22;15241;48.374;10.876;2023-04-24T00:25:12;11.90;99.90
27896;DHT22;15241;48.374;10.876;2023-04-24T00:30:12;12.00;99.90
27896;DHT22;15241;48.374;10.876;2023-04-24T00:35:11;12.00;99.90
27896;DHT22;15241;48.374;10.876;2023-04-24T00:40:11;11.90;99.90
27896;DHT22;15241;48.374;10.876;2023-04-24T00:45:11;11.90;99.90
27896;DHT22;15241;48.374;10.876;2023-04-24T00:50:11;11.90;99.90
27896;DHT22;15241;48.374;10.876;2023-04-24T00:55:10;11.80;99.90
27896;DHT22;15241;48.374;10.876;2023-04-24T01:00:11;11.80;99.90
27896;DHT22;15241;48.374;10.876;2023-04-24T01:05:10;11.80;99.90
27896;DHT22;15241;48.374;10.876;2023-04-24T01:10:11;11.70;99.90
27896;DHT22;15241;48.374;10.876;2023-04-24T01:15:11;11.70;99.90
27896;DHT22;15241;48.374;10.876;2023-04-24T01:20:11;11.70;99.90
27896;DHT22;15241;48.374;10.876;2023-04-24T01:25:10;11.70;99.90
27896;DHT22;15241;48.374;10.876;2023-04-24T01:30:11;11.60;99.90
27896;DHT22;15241;48.374;10.876;2023-04-24T01:35:11;11.70;99.90
27896;DHT22;15241;48.374;10.876;2023-04-24T01:40:11;11.60;99.90
27896;DHT22;15241;48.374;10.876;2023-04-24T01:45:11;11.60;99.90
27896;DHT22;15241;48.374;10.876;2023-04-24T01:50:11;11.60;99.90
27896;DHT22;15241;48.374;10.876;2023-04-24T01:55:11;11.40;99.90
27896;DHT22;15241;48.374;10.876;2023-04-24T02:00:11;11.50;99.90
27896;DHT22;15241;48.374;10.876;2023-04-24T02:05:10;11.50;99.90
27896;DHT22;15241;48.374;10.876;2023-04-24T02:10:11;11.40;99.90
27896;DHT22;15241;48.374;10.876;2023-04-24T02:15:11;11.20;99.90
27896;DHT22;15241;48.374;10.876;2023-04-24T02:20:11;11.20;99.90
27896;DHT22;15241;48.374;10.876;2023-04-24T02:25:10;11.30;99.90
27896;DHT22;15241;48.374;10.876;2023-04-24T02:30:11;11.30;99.90
27896;DHT22;15241;48.374;10.876;2023-04-24T02:35:11;11.20;99.90
27896;DHT22;15241;48.374;10.876;2023-04-24T02:40:11;11.30;99.90
27896;DHT22;15241;48.374;10.876;2023-04-24T02:45:11;11.20;99.90
27896;DHT22;15241;48.374;10.876;2023-04-24T02:50:10;11.20;99.90
27896;DHT22;15241;48.374;10.876;2023-04-24T02:55:10;11.20;99.90
27896;DHT22;15241;48.374;10.876;2023-04-24T03:00:12;11.10;99.90
27896;DHT22;15241;48.374;10.876;2023-04-24T03:05:11;11.30;99.90
27896;DHT22;15241;48.374;10.876;2023-04-24T03:10:10;11.30;99.90
27896;DHT22;15241;48.374;10.876;2023-04-24T03:15:11;11.40;99.90
27896;DHT22;15241;48.374;10.876;2023-04-24T03:20:11;11.30;99.90
27896;DHT22;15241;48.374;10.876;2023-04-24T03:25:11;11.30;99.90
27896;DHT22;15241;48.374;10.876;2023-04-24T03:30:10;11.30;99.90
27896;DHT22;15241;48.374;10.876;2023-04-24T03:35:10;11.20;99.90
27896;DHT22;15241;48.374;10.876;2023-04-24T03:40:11;11.20;99.90
27896;DHT22;15241;48.374;10.876;2023-04-24T03:45:11;11.20;99.90
27896;DHT22;15241;48.374;10.876;2023-04-24T03:50:11;11.20;99.90
27896;DHT22;15241;48.374;10.876;2023-04-24T03:55:10;11.20;99.90
27896;DHT22;15241;48.374;10.876;2023-04-24T04:00:11;11.20;99.90
27896;DHT22;15241;48.374;10.876;2023-04-24T04:05:10;11.20;99.90
27896;DHT22;15241;48.374;10.876;2023-04-24T04:10:10;11.20;99.90
27896;DHT22;15241;48.374;10.876;2023-04-24T04:15:10;11.10;99.90
27896;DHT22;15241;48.374;10.876;2023-04-24T04:20:10;11.20;99.90
27896;DHT22;15241;48.374;10.876;2023-04-24T04:25:10;11.10;99.90
27896;DHT22;15241;48.374;10.876;2023-04-24T04:30:09;11.20;99.90
27896;DHT22;15241;48.374;10.876;2023-04-24T04:35:08;11.20;99.90
27896;DHT22;15241;48.374;10.876;2023-04-24T04:40:09;11.20;99.90
27896;DHT22;15241;48.374;10.876;2023-04-24T04:45:11;11.10;99.90
27896;DHT22;15241;48.374;10.876;2023-04-24T04:50:10;11.10;99.90
27896;DHT22;15241;48.374;10.876;2023-04-24T04:55:10;11.10;99.90
27896;DHT22;15241;48.374;10.876;2023-04-24T05:00:11;11.20;99.90
27896;DHT22;15241;48.374;10.876;2023-04-24T05:05:11;11.20;99.90
27896;DHT22;15241;48.374;10.876;2023-04-24T05:10:10;11.20;99.90
27896;DHT22;15241;48.374;10.876;2023-04-24T05:15:11;11.20;99.90
27896;DHT22;15241;48.374;10.876;2023-04-24T05:20:10;11.20;99.90
27896;DHT22;15241;48.374;10.876;2023-04-24T05:25:10;11.20;99.90
27896;DHT22;15241;48.374;10.876;2023-04-24T05:30:10;11.30;99.90
27896;DHT22;15241;48.374;10.876;2023-04-24T05:35:10;11.20;99.90
27896;DHT22;15241;48.374;10.876;2023-04-24T05:40:11;11.20;99.90
27896;DHT22;15241;48.374;10.876;2023-04-24T05:45:10;11.30;99.90
27896;DHT22;15241;48.374;10.876;2023-04-24T05:50:10;11.40;99.90
27896;DHT22;15241;48.374;10.876;2023-04-24T05:55:10;11.30;99.90
27896;DHT22;15241;48.374;10.876;2023-04-24T06:00:11;11.30;99.90
27896;DHT22;15241;48.374;10.876;2023-04-24T06:05:10;11.30;99.90
27896;DHT22;15241;48.374;10.876;2023-04-24T06:10:11;11.40;99.90
27896;DHT22;15241;48.374;10.876;2023-04-24T06:15:11;11.50;99.90
27896;DHT22;15241;48.374;10.876;2023-04-24T06:20:11;11.60;99.90
27896;DHT22;15241;48.374;10.876;2023-04-24T06:25:10;11.80;99.90
27896;DHT22;15241;48.374;10.876;2023-04-24T06:30:11;11.50;99.90
27896;DHT22;15241;48.374;10.876;2023-04-24T06:35:10;11.60;99.90
27896;DHT22;15241;48.374;10.876;2023-04-24T06:40:10;11.60;99.90
27896;DHT22;15241;48.374;10.876;2023-04-24T06:45:10;11.90;99.90
27896;DHT22;15241;48.374;10.876;2023-04-24T06:50:14;11.80;99.90
27896;DHT22;15241;48.374;10.876;2023-04-24T06:55:13;11.90;99.90
27896;DHT22;15241;48.374;10.876;2023-04-24T07:00:14;11.90;99.90
27896;DHT22;15241;48.374;10.876;2023-04-24T07:05:14;11.90;99.90
27896;DHT22;15241;48.374;10.876;2023-04-24T07:10:12;11.80;99.90
27896;DHT22;15241;48.374;10.876;2023-04-24T07:15:12;11.70;99.90
27896;DHT22;15241;48.374;10.876;2023-04-24T07:20:11;11.80;99.90
27896;DHT22;15241;48.374;10.876;2023-04-24T07:25:11;11.90;99.90
27896;DHT22;15241;48.374;10.876;2023-04-24T07:30:11;12.00;99.90
27896;DHT22;15241;48.374;10.876;2023-04-24T07:35:11;11.80;99.90
27896;DHT22;15241;48.374;10.876;2023-04-24T07:40:11;11.70;99.90
27896;DHT22;15241;48.374;10.876;2023-04-24T07:45:10;11.70;99.90
27896;DHT22;15241;48.374;10.876;2023-04-24T07:50:10;11.80;99.90
27896;DHT22;15241;48.374;10.876;2023-04-24T07:55:09;11.90;99.90
27896;DHT22;15241;48.374;10.876;2023-04-24T08:00:11;12.00;99.90
27896;DHT22;15241;48.374;10.876;2023-04-24T08:05:10;12.30;99.90
27896;DHT22;15241;48.374;10.876;2023-04-24T08:10:10;12.40;99.90
27896;DHT22;15241;48.374;10.876;2023-04-24T08:15:11;12.30;99.90
27896;DHT22;15241;48.374;10.876;2023-04-24T08:20:11;12.50;99.90
27896;DHT22;15241;48.374;10.876;2023-04-24T08:25:12;12.60;99.90
27896;DHT22;15241;48.374;10.876;2023-04-24T08:30:14;12.80;99.90
27896;DHT22;15241;48.374;10.876;2023-04-24T08:35:13;13.20;99.90
27896;DHT22;15241;48.374;10.876;2023-04-24T08:40:14;13.60;99.90
27896;DHT22;15241;48.374;10.876;2023-04-24T08:45:14;13.80;99.90
27896;DHT22;15241;48.374;10.876;2023-04-24T08:50:13;13.90;99.90
27896;DHT22;15241;48.374;10.876;2023-04-24T08:55:12;13.90;99.90
27896;DHT22;15241;48.374;10.876;2023-04-24T09:00:13;13.90;99.90
27896;DHT22;15241;48.374;10.876;2023-04-24T09:05:13;14.20;99.90
27896;DHT22;15241;48.374;10.876;2023-04-24T09:10:13;14.20;99.90
27896;DHT22;15241;48.374;10.876;2023-04-24T09:15:13;14.30;99.90
27896;DHT22;15241;48.374;10.876;2023-04-24T09:20:12;14.40;99.90
27896;DHT22;15241;48.374;10.876;2023-04-24T09:25:12;14.80;99.90
27896;DHT22;15241;48.374;10.876;2023-04-24T09:30:12;15.00;99.90
27896;DHT22;15241;48.374;10.876;2023-04-24T09:35:13;15.00;99.90
27896;DHT22;15241;48.374;10.876;2023-04-24T09:40:17;15.20;99.90
27896;DHT22;15241;48.374;10.876;2023-04-24T09:45:15;15.20;99.90
27896;DHT22;15241;48.374;10.876;2023-04-24T09:50:16;15.30;99.90
27896;DHT22;15241;48.374;10.876;2023-04-24T09:55:18;15.80;99.90
27896;DHT22;15241;48.374;10.876;2023-04-24T10:00:24;15.60;99.90
27896;DHT22;15241;48.374;10.876;2023-04-24T10:05:26;15.60;99.90
27896;DHT22;15241;48.374;10.876;2023-04-24T10:10:25;15.90;99.90
27896;DHT22;15241;48.374;10.876;2023-04-24T10:15:25;15.60;99.90
27896;DHT22;15241;48.374;10.876;2023-04-24T10:20:26;15.00;99.90
27896;DHT22;15241;48.374;10.876;2023-04-24T10:25:27;14.70;99.90
27896;DHT22;15241;48.374;10.876;2023-04-24T10:30:28;14.30;99.90
27896;DHT22;15241;48.374;10.876;2023-04-24T10:35:29;13.80;99.90
27896;DHT22;15241;48.374;10.876;2023-04-24T10:40:31;13.20;99.90
27896;DHT22;15241;48.374;10.876;2023-04-24T10:45:30;13.00;99.90
27896;DHT22;15241;48.374;10.876;2023-04-24T10:50:30;13.30;99.90
27896;DHT22;15241;48.374;10.876;2023-04-24T10:55:47;13.60;99.90
27896;DHT22;15241;48.374;10.876;2023-04-24T11:06:00;14.40;99.90
27896;DHT22;15241;48.374;10.876;2023-04-24T11:11:03;15.00;99.90
27896;DHT22;15241;48.374;10.876;2023-04-24T11:16:26;15.40;99.90
27896;DHT22;15241;48.374;10.876;2023-04-24T11:21:25;15.80;99.90
27896;DHT22;15241;48.374;10.876;2023-04-24T11:26:26;16.30;99.90
27896;DHT22;15241;48.374;10.876;2023-04-24T11:31:43;16.60;99.90
27896;DHT22;15241;48.374;10.876;2023-04-24T11:36:43;17.10;99.90
27896;DHT22;15241;48.374;10.876;2023-04-24T11:41:43;17.70;99.90
27896;DHT22;15241;48.374;10.876;2023-04-24T11:46:41;17.90;99.90
27896;DHT22;15241;48.374;10.876;2023-04-24T11:51:41;17.70;99.90
27896;DHT22;15241;48.374;10.876;2023-04-24T11:56:40;16.80;99.90
27896;DHT22;15241;48.374;10.876;2023-04-24T12:01:47;16.30;99.90
27896;DHT22;15241;48.374;10.876;2023-04-24T12:07:01;16.20;99.90
27896;DHT22;15241;48.374;10.876;2023-04-24T12:17:08;17.60;99.90
27896;DHT22;15241;48.374;10.876;2023-04-24T12:22:07;17.90;99.90
27896;DHT22;15241;48.374;10.876;2023-04-24T12:27:06;17.60;99.90
27896;DHT22;15241;48.374;10.876;2023-04-24T12:32:15;17.70;99.90
27896;DHT22;15241;48.374;10.876;2023-04-24T12:37:11;18.10;99.90
27896;DHT22;15241;48.374;10.876;2023-04-24T12:42:11;18.10;99.90
27896;DHT22;15241;48.374;10.876;2023-04-24T12:47:10;18.40;99.90
27896;DHT22;15241;48.374;10.876;2023-04-24T12:52:09;18.50;99.90
27896;DHT22;15241;48.374;10.876;2023-04-24T12:57:08;17.90;99.90
27896;DHT22;15241;48.374;10.876;2023-04-24T13:02:07;16.90;99.90
27896;DHT22;15241;48.374;10.876;2023-04-24T13:07:06;16.50;99.90
27896;DHT22;15241;48.374;10.876;2023-04-24T13:12:06;17.10;99.90
27896;DHT22;15241;48.374;10.876;2023-04-24T13:17:05;18.00;97.30
27896;DHT22;15241;48.374;10.876;2023-04-24T13:22:04;18.60;96.80
27896;DHT22;15241;48.374;10.876;2023-04-24T13:27:04;18.80;95.90
27896;DHT22;15241;48.374;10.876;2023-04-24T13:32:03;18.60;94.60
27896;DHT22;15241;48.374;10.876;2023-04-24T13:37:02;18.50;93.90
27896;DHT22;15241;48.374;10.876;2023-04-24T13:42:01;18.90;93.70
27896;DHT22;15241;48.374;10.876;2023-04-24T13:47:00;19.10;94.10
27896;DHT22;15241;48.374;10.876;2023-04-24T13:51:59;18.90;95.40
27896;DHT22;15241;48.374;10.876;2023-04-24T13:56:58;18.90;95.40
27896;DHT22;15241;48.374;10.876;2023-04-24T14:01:57;18.30;95.20
27896;DHT22;15241;48.374;10.876;2023-04-24T14:06:56;18.60;94.80
27896;DHT22;15241;48.374;10.876;2023-04-24T14:11:55;18.40;93.80
27896;DHT22;15241;48.374;10.876;2023-04-24T14:16:54;17.90;94.00
27896;DHT22;15241;48.374;10.876;2023-04-24T14:21:53;17.50;95.00
27896;DHT22;15241;48.374;10.876;2023-04-24T14:26:52;17.50;94.30
27896;DHT22;15241;48.374;10.876;2023-04-24T14:31:51;17.90;94.30
27896;DHT22;15241;48.374;10.876;2023-04-24T14:36:50;18.70;94.60
27896;DHT22;15241;48.374;10.876;2023-04-24T14:41:49;18.70;93.50
27896;DHT22;15241;48.374;10.876;2023-04-24T14:46:49;19.20;94.60
27896;DHT22;15241;48.374;10.876;2023-04-24T14:51:48;19.40;93.80
27896;DHT22;15241;48.374;10.876;2023-04-24T14:56:47;19.10;92.50
27896;DHT22;15241;48.374;10.876;2023-04-24T15:01:46;19.00;92.80
27896;DHT22;15241;48.374;10.876;2023-04-24T15:06:45;19.40;92.70
27896;DHT22;15241;48.374;10.876;2023-04-24T15:11:44;19.20;92.70
27896;DHT22;15241;48.374;10.876;2023-04-24T15:16:44;19.20;93.30
27896;DHT22;15241;48.374;10.876;2023-04-24T15:21:43;19.60;93.40
27896;DHT22;15241;48.374;10.876;2023-04-24T15:26:42;18.80;91.80
27896;DHT22;15241;48.374;10.876;2023-04-24T15:31:41;18.80;92.60
27896;DHT22;15241;48.374;10.876;2023-04-24T15:36:40;18.50;91.90
27896;DHT22;15241;48.374;10.876;2023-04-24T15:41:40;18.30;92.00
27896;DHT22;15241;48.374;10.876;2023-04-24T15:46:39;18.20;91.90
27896;DHT22;15241;48.374;10.876;2023-04-24T15:51:38;18.00;91.10
27896;DHT22;15241;48.374;10.876;2023-04-24T15:56:37;18.00;91.30
27896;DHT22;15241;48.374;10.876;2023-04-24T16:01:36;17.50;90.80
27896;DHT22;15241;48.374;10.876;2023-04-24T16:06:35;17.40;91.70
27896;DHT22;15241;48.374;10.876;2023-04-24T16:11:34;17.40;91.30
27896;DHT22;15241;48.374;10.876;2023-04-24T16:21:32;17.10;91.70
27896;DHT22;15241;48.374;10.876;2023-04-24T16:26:31;16.80;91.60
27896;DHT22;15241;48.374;10.876;2023-04-24T16:31:30;16.60;91.80
27896;DHT22;15241;48.374;10.876;2023-04-24T16:36:29;16.60;93.00
27896;DHT22;15241;48.374;10.876;2023-04-24T16:41:28;16.40;92.70
27896;DHT22;15241;48.374;10.876;2023-04-24T16:46:27;16.40;93.30
27896;DHT22;15241;48.374;10.876;2023-04-24T16:51:26;16.20;93.00
27896;DHT22;15241;48.374;10.876;2023-04-24T16:56:25;16.10;93.10
27896;DHT22;15241;48.374;10.876;2023-04-24T17:01:24;16.00;93.00
27896;DHT22;15241;48.374;10.876;2023-04-24T17:06:23;15.90;93.40
27896;DHT22;15241;48.374;10.876;2023-04-24T17:11:22;15.90;94.00
27896;DHT22;15241;48.374;10.876;2023-04-24T17:16:21;15.90;94.00
27896;DHT22;15241;48.374;10.876;2023-04-24T17:21:20;15.70;94.20
27896;DHT22;15241;48.374;10.876;2023-04-24T17:26:19;15.30;94.90
27896;DHT22;15241;48.374;10.876;2023-04-24T17:31:18;15.40;95.10
27896;DHT22;15241;48.374;10.876;2023-04-24T17:36:17;15.30;95.10
27896;DHT22;15241;48.374;10.876;2023-04-24T17:41:16;15.30;95.60
27896;DHT22;15241;48.374;10.876;2023-04-24T17:46:15;14.90;95.40
27896;DHT22;15241;48.374;10.876;2023-04-24T17:51:14;14.90;95.80
27896;DHT22;15241;48.374;10.876;2023-04-24T17:56:13;14.50;96.50
27896;DHT22;15241;48.374;10.876;2023-04-24T18:01:12;14.20;96.60
27896;DHT22;15241;48.374;10.876;2023-04-24T18:06:11;14.10;96.90
27896;DHT22;15241;48.374;10.876;2023-04-24T18:11:10;13.90;97.80
27896;DHT22;15241;48.374;10.876;2023-04-24T18:16:09;13.60;98.00
27896;DHT22;15241;48.374;10.876;2023-04-24T18:21:08;13.40;98.80
27896;DHT22;15241;48.374;10.876;2023-04-24T18:26:07;13.20;98.80
27896;DHT22;15241;48.374;10.876;2023-04-24T18:31:06;13.00;99.30
27896;DHT22;15241;48.374;10.876;2023-04-24T18:36:05;12.90;99.70
27896;DHT22;15241;48.374;10.876;2023-04-24T18:41:04;12.70;99.90
27896;DHT22;15241;48.374;10.876;2023-04-24T18:46:03;12.50;99.90
27896;DHT22;15241;48.374;10.876;2023-04-24T18:51:02;12.40;99.90
27896;DHT22;15241;48.374;10.876;2023-04-24T18:56:01;12.40;99.90
27896;DHT22;15241;48.374;10.876;2023-04-24T19:01:00;12.10;99.90
27896;DHT22;15241;48.374;10.876;2023-04-24T19:05:59;12.10;99.90
27896;DHT22;15241;48.374;10.876;2023-04-24T19:10:58;12.00;99.90
27896;DHT22;15241;48.374;10.876;2023-04-24T19:15:57;11.90;99.90
27896;DHT22;15241;48.374;10.876;2023-04-24T19:20:56;11.70;99.90
27896;DHT22;15241;48.374;10.876;2023-04-24T19:25:55;11.70;99.90
27896;DHT22;15241;48.374;10.876;2023-04-24T19:30:54;11.60;99.90
27896;DHT22;15241;48.374;10.876;2023-04-24T19:35:53;11.40;99.90
27896;DHT22;15241;48.374;10.876;2023-04-24T19:40:52;11.30;99.90
27896;DHT22;15241;48.374;10.876;2023-04-24T19:45:52;11.30;99.90
27896;DHT22;15241;48.374;10.876;2023-04-24T19:50:51;11.30;99.90
27896;DHT22;15241;48.374;10.876;2023-04-24T19:55:50;11.30;99.90
27896;DHT22;15241;48.374;10.876;2023-04-24T20:00:49;11.30;99.90
27896;DHT22;15241;48.374;10.876;2023-04-24T20:05:48;11.30;99.90
27896;DHT22;15241;48.374;10.876;2023-04-24T20:10:47;11.30;99.90
27896;DHT22;15241;48.374;10.876;2023-04-24T20:15:46;11.10;99.90
27896;DHT22;15241;48.374;10.876;2023-04-24T20:25:55;11.00;99.90
27896;DHT22;15241;48.374;10.876;2023-04-24T20:30:54;10.90;99.90
27896;DHT22;15241;48.374;10.876;2023-04-24T20:35:53;11.00;99.90
27896;DHT22;15241;48.374;10.876;2023-04-24T20:40:52;10.80;99.90
27896;DHT22;15241;48.374;10.876;2023-04-24T20:45:51;10.80;99.90
27896;DHT22;15241;48.374;10.876;2023-04-24T20:50:50;10.70;99.90
27896;DHT22;15241;48.374;10.876;2023-04-24T20:55:49;10.70;99.90
27896;DHT22;15241;48.374;10.876;2023-04-24T21:00:48;10.60;99.90
27896;DHT22;15241;48.374;10.876;2023-04-24T21:05:47;10.50;99.90
27896;DHT22;15241;48.374;10.876;2023-04-24T21:10:46;10.40;99.90
27896;DHT22;15241;48.374;10.876;2023-04-24T21:15:45;10.20;99.90
27896;DHT22;15241;48.374;10.876;2023-04-24T21:20:45;10.30;99.90
27896;DHT22;15241;48.374;10.876;2023-04-24T21:25:44;10.20;99.90
27896;DHT22;15241;48.374;10.876;2023-04-24T21:30:43;10.20;99.90
27896;DHT22;15241;48.374;10.876;2023-04-24T21:35:42;10.10;99.90
27896;DHT22;15241;48.374;10.876;2023-04-24T21:40:41;10.10;99.90
27896;DHT22;15241;48.374;10.876;2023-04-24T21:45:40;10.10;99.90
27896;DHT22;15241;48.374;10.876;2023-04-24T21:50:39;10.10;99.90
27896;DHT22;15241;48.374;10.876;2023-04-24T21:55:38;10.00;99.90
27896;DHT22;15241;48.374;10.876;2023-04-24T22:00:38;9.80;99.90
27896;DHT22;15241;48.374;10.876;2023-04-24T22:05:37;9.90;99.90
27896;DHT22;15241;48.374;10.876;2023-04-24T22:10:36;9.90;99.90
27896;DHT22;15241;48.374;10.876;2023-04-24T22:15:34;10.00;99.90
27896;DHT22;15241;48.374;10.876;2023-04-24T22:20:33;9.90;99.90
27896;DHT22;15241;48.374;10.876;2023-04-24T22:25:33;9.90;99.90
27896;DHT22;15241;48.374;10.876;2023-04-24T22:30:31;10.00;99.90
27896;DHT22;15241;48.374;10.876;2023-04-24T22:35:30;10.00;99.90
27896;DHT22;15241;48.374;10.876;2023-04-24T22:40:29;9.90;99.90
27896;DHT22;15241;48.374;10.876;2023-04-24T22:45:28;9.80;99.90
27896;DHT22;15241;48.374;10.876;2023-04-24T22:50:27;9.80;99.90
27896;DHT22;15241;48.374;10.876;2023-04-24T22:55:26;9.80;99.90
27896;DHT22;15241;48.374;10.876;2023-04-24T23:00:26;9.70;99.90
27896;DHT22;15241;48.374;10.876;2023-04-24T23:05:25;9.70;99.90
27896;DHT22;15241;48.374;10.876;2023-04-24T23:10:24;9.70;99.90
27896;DHT22;15241;48.374;10.876;2023-04-24T23:15:22;9.70;99.90
27896;DHT22;15241;48.374;10.876;2023-04-24T23:20:21;9.60;99.90
27896;DHT22;15241;48.374;10.876;2023-04-24T23:25:20;9.60;99.90
27896;DHT22;15241;48.374;10.876;2023-04-24T23:30:20;9.50;99.90
27896;DHT22;15241;48.374;10.876;2023-04-24T23:35:19;9.50;99.90
27896;DHT22;15241;48.374;10.876;2023-04-24T23:40:17;9.50;99.90
27896;DHT22;15241;48.374;10.876;2023-04-24T23:45:17;9.50;99.90
27896;DHT22;15241;48.374;10.876;2023-04-24T23:50:16;9.30;99.90
27896;DHT22;15241;48.374;10.876;2023-04-24T23:55:15;9.30;99.90
